createdAt,value
2019-05-02T00:02:11.435Z,98344.63
2019-05-02T00:04:38.299Z,98345.23
2019-05-02T00:07:07.280Z,98346.34
2019-05-02T00:09:35.647Z,98338.05
2019-05-02T00:12:06.796Z,98338.41
2019-05-02T00:14:34.981Z,98337.44
2019-05-02T00:17:02.193Z,98328.62
2019-05-02T00:19:29.515Z,98329.30
2019-05-02T00:21:56.809Z,98329.60
2019-05-02T00:24:23.793Z,98325.39
2019-05-02T00:26:50.757Z,98330.89
2019-05-02T00:29:19.026Z,98326.14
2019-05-02T00:31:48.810Z,98323.67
2019-05-02T00:34:15.789Z,98319.11
2019-05-02T00:36:43.064Z,98315.67
2019-05-02T00:39:13.724Z,98316.05
2019-05-02T00:41:40.442Z,98308.53
2019-05-02T00:44:10.957Z,98307.23
2019-05-02T00:46:37.176Z,98306.30
2019-05-02T00:49:04.448Z,98297.39
2019-05-02T00:51:31.598Z,98306.05
2019-05-02T00:53:58.762Z,98304.70
2019-05-02T00:56:25.541Z,98302.19
2019-05-02T00:58:52.689Z,98303.31
2019-05-02T01:01:29.628Z,98302.61
2019-05-02T01:03:59.270Z,98306.35
2019-05-02T01:06:26.486Z,98306.23
2019-05-02T01:08:53.284Z,98300.56
2019-05-02T01:11:20.250Z,98299.45
2019-05-02T01:13:50.276Z,98294.59
2019-05-02T01:16:19.120Z,98296.08
2019-05-02T01:18:44.669Z,98295.64
2019-05-02T01:21:11.467Z,98291.75
2019-05-02T01:23:38.352Z,98294.69
2019-05-02T01:26:07.116Z,98293.55
2019-05-02T01:28:55.612Z,98290.54
2019-05-02T01:31:36.591Z,98295.80
2019-05-02T01:34:17.958Z,98291.52
2019-05-02T01:36:49.673Z,98291.03
2019-05-02T01:39:17.033Z,98286.55
2019-05-02T01:41:43.905Z,98284.84
2019-05-02T01:44:10.780Z,98288.05
2019-05-02T01:46:37.628Z,98290.67
2019-05-02T01:49:04.781Z,98281.73
2019-05-02T01:51:31.513Z,98285.95
2019-05-02T01:53:59.148Z,98282.70
2019-05-02T01:56:28.443Z,98280.98
2019-05-02T01:58:57.763Z,98281.62
2019-05-02T02:01:23.863Z,98278.59
2019-05-02T02:03:50.744Z,98275.91
2019-05-02T02:06:17.622Z,98278.82
2019-05-02T02:08:45.030Z,98276.34
2019-05-02T02:11:11.765Z,98280.86
2019-05-02T02:13:38.849Z,98278.11
2019-05-02T02:16:06.168Z,98278.17
2019-05-02T02:18:35.099Z,98273.56
2019-05-02T02:21:14.972Z,98277.80
2019-05-02T02:23:49.739Z,98274.36
2019-05-02T02:26:18.756Z,98276.66
2019-05-02T02:28:45.638Z,98273.63
2019-05-02T02:31:12.628Z,98271.70
2019-05-02T02:33:40.806Z,98278.50
2019-05-02T02:36:09.040Z,98274.75
2019-05-02T02:38:36.458Z,98268.25
2019-05-02T02:41:06.392Z,98274.34
2019-05-02T02:43:34.740Z,98277.69
2019-05-02T02:46:01.705Z,98287.01
2019-05-02T02:48:33.614Z,98283.20
2019-05-02T02:50:58.976Z,98278.11
2019-05-02T02:53:31.424Z,98275.72
2019-05-02T02:56:05.987Z,98272.84
2019-05-02T02:58:44.558Z,98271.69
2019-05-02T03:01:02.133Z,98272.64
2019-05-02T03:03:31.381Z,98273.54
2019-05-02T03:06:05.242Z,98272.05
2019-05-02T03:08:27.337Z,98266.05
2019-05-02T03:10:54.408Z,98267.41
2019-05-02T03:13:24.363Z,98263.58
2019-05-02T03:16:00.463Z,98270.02
2019-05-02T03:18:26.938Z,98255.61
2019-05-02T03:20:52.658Z,98262.00
2019-05-02T03:23:22.163Z,98257.27
2019-05-02T03:25:51.171Z,98266.73
2019-05-02T03:28:20.355Z,98269.68
2019-05-02T03:30:46.404Z,98268.02
2019-05-02T03:33:13.158Z,98265.41
2019-05-02T03:35:44.130Z,98264.62
2019-05-02T03:38:09.450Z,98273.51
2019-05-02T03:40:38.871Z,98269.77
2019-05-02T03:43:06.440Z,98273.08
2019-05-02T03:45:39.804Z,98262.61
2019-05-02T03:48:02.197Z,98270.02
2019-05-02T03:50:32.746Z,98276.78
2019-05-02T03:52:59.233Z,98277.97
2019-05-02T03:55:30.896Z,98273.55
2019-05-02T03:57:55.934Z,98272.85
2019-05-02T04:00:24.416Z,98278.56
2019-05-02T04:02:59.588Z,98274.00
2019-05-02T04:05:20.385Z,98271.53
2019-05-02T04:07:47.560Z,98269.06
2019-05-02T04:10:46.273Z,98276.16
2019-05-02T04:13:13.817Z,98274.22
2019-05-02T04:15:42.820Z,98272.20
2019-05-02T04:18:15.569Z,98276.75
2019-05-02T04:20:43.537Z,98278.73
2019-05-02T04:23:11.530Z,98278.50
2019-05-02T04:25:39.034Z,98277.72
2019-05-02T04:28:11.488Z,98287.11
2019-05-02T04:30:34.469Z,98286.04
2019-05-02T04:33:01.355Z,98285.00
2019-05-02T04:35:28.716Z,98281.48
2019-05-02T04:37:59.113Z,98285.36
2019-05-02T04:40:28.189Z,98280.27
2019-05-02T04:43:05.498Z,98278.41
2019-05-02T04:45:29.384Z,98278.73
2019-05-02T04:47:58.999Z,98281.71
2019-05-02T04:50:25.315Z,98285.48
2019-05-02T04:52:53.728Z,98279.69
2019-05-02T04:55:26.214Z,98281.92
2019-05-02T04:57:50.594Z,98282.59
2019-05-02T05:00:20.957Z,98291.80
2019-05-02T05:02:48.391Z,98287.06
2019-05-02T05:05:25.019Z,98291.64
2019-05-02T05:07:46.515Z,98286.39
2019-05-02T05:10:14.476Z,98295.37
2019-05-02T05:12:42.010Z,98284.05
2019-05-02T05:15:15.144Z,98284.63
2019-05-02T05:17:38.070Z,98293.66
2019-05-02T05:20:12.210Z,98291.55
2019-05-02T05:22:36.598Z,98290.78
2019-05-02T05:25:21.360Z,98294.16
2019-05-02T05:27:52.556Z,98283.96
2019-05-02T05:30:18.754Z,98294.91
2019-05-02T05:32:47.785Z,98297.17
2019-05-02T05:35:15.154Z,98297.95
2019-05-02T05:37:43.268Z,98292.20
2019-05-02T05:40:11.238Z,98296.38
2019-05-02T05:42:38.122Z,98301.45
2019-05-02T05:45:09.693Z,98306.23
2019-05-02T05:47:37.722Z,98297.10
2019-05-02T05:50:05.676Z,98294.59
2019-05-02T05:52:33.110Z,98295.57
2019-05-02T05:55:01.107Z,98296.23
2019-05-02T05:57:28.048Z,98298.13
2019-05-02T05:59:58.425Z,98291.69
2019-05-02T06:02:25.448Z,98288.98
2019-05-02T06:04:55.343Z,98290.89
2019-05-02T06:07:21.426Z,98282.56
2019-05-02T06:09:48.155Z,98285.45
2019-05-02T06:12:15.040Z,98282.17
2019-05-02T06:14:41.890Z,98278.33
2019-05-02T06:17:09.428Z,98283.27
2019-05-02T06:19:37.151Z,98280.96
2019-05-02T06:22:04.668Z,98278.84
2019-05-02T06:24:33.834Z,98275.08
2019-05-02T06:27:00.431Z,98272.08
2019-05-02T06:29:27.321Z,98274.98
2019-05-02T06:31:59.457Z,98271.16
2019-05-02T06:34:26.229Z,98272.00
2019-05-02T06:36:53.097Z,98269.08
2019-05-02T06:39:19.879Z,98269.41
2019-05-02T06:41:46.750Z,98268.22
2019-05-02T06:44:18.475Z,98263.48
2019-05-02T06:46:42.808Z,98268.87
2019-05-02T06:49:09.694Z,98260.20
2019-05-02T06:51:38.231Z,98262.38
2019-05-02T06:54:05.545Z,98267.66
2019-05-02T06:56:32.661Z,98271.06
2019-05-02T06:59:01.755Z,98265.23
2019-05-02T07:01:28.614Z,98266.69
2019-05-02T07:03:55.595Z,98262.84
2019-05-02T07:06:22.912Z,98259.56
2019-05-02T07:08:50.184Z,98253.89
2019-05-02T07:11:18.123Z,98249.19
2019-05-02T07:13:44.909Z,98252.14
2019-05-02T07:16:30.361Z,98252.02
2019-05-02T07:18:49.403Z,98247.86
2019-05-02T07:21:17.317Z,98246.88
2019-05-02T07:23:48.627Z,98244.64
2019-05-02T07:26:15.414Z,98247.33
2019-05-02T07:28:45.758Z,98251.75
2019-05-02T07:31:13.857Z,98248.66
2019-05-02T07:33:40.870Z,98248.84
2019-05-02T07:36:07.823Z,98246.34
2019-05-02T07:38:34.726Z,98246.06
2019-05-02T07:41:01.587Z,98236.55
2019-05-02T07:43:28.560Z,98244.08
2019-05-02T07:45:55.803Z,98244.44
2019-05-02T07:48:22.569Z,98245.50
2019-05-02T07:50:49.893Z,98246.13
2019-05-02T07:53:17.227Z,98237.34
2019-05-02T07:55:44.217Z,98242.94
2019-05-02T07:58:11.027Z,98247.26
2019-05-02T08:00:38.502Z,98244.62
2019-05-02T08:03:05.589Z,98247.80
2019-05-02T08:05:32.785Z,98243.81
2019-05-02T08:07:59.919Z,98246.00
2019-05-02T08:10:27.180Z,98249.50
2019-05-02T08:12:54.560Z,98233.80
2019-05-02T08:15:24.301Z,98242.06
2019-05-02T08:17:53.807Z,98235.32
2019-05-02T08:20:19.810Z,98239.11
2019-05-02T08:22:48.924Z,98240.50
2019-05-02T08:25:16.922Z,98239.80
2019-05-02T08:27:51.771Z,98243.45
2019-05-02T08:30:21.232Z,98236.81
2019-05-02T08:32:48.401Z,98237.84
2019-05-02T08:35:15.270Z,98244.91
2019-05-02T08:37:43.106Z,98239.71
2019-05-02T08:40:12.016Z,98235.75
2019-05-02T08:42:39.068Z,98242.31
2019-05-02T08:45:06.972Z,98243.98
2019-05-02T08:47:33.899Z,98247.02
2019-05-02T08:50:00.983Z,98246.80
2019-05-02T08:52:27.883Z,98244.40
2019-05-02T08:54:54.773Z,98247.58
2019-05-02T08:57:23.855Z,98245.55
2019-05-02T08:59:55.501Z,98249.09
2019-05-02T09:02:21.202Z,98232.30
2019-05-02T09:04:58.175Z,98234.42
2019-05-02T09:07:18.288Z,98233.50
2019-05-02T09:09:45.217Z,98231.61
2019-05-02T09:12:15.080Z,98228.89
2019-05-02T09:14:42.602Z,98235.44
2019-05-02T09:17:15.847Z,98232.48
2019-05-02T09:19:38.955Z,98234.28
2019-05-02T09:22:07.516Z,98222.19
2019-05-02T09:24:34.533Z,98223.25
2019-05-02T09:27:02.479Z,98224.19
2019-05-02T09:29:29.541Z,98223.44
2019-05-02T09:31:56.445Z,98223.64
2019-05-02T09:34:26.694Z,98225.86
2019-05-02T09:36:53.040Z,98217.79
2019-05-02T09:39:20.023Z,98225.50
2019-05-02T09:41:46.840Z,98215.16
2019-05-02T09:44:18.623Z,98215.81
2019-05-02T09:46:47.348Z,98210.55
2019-05-02T09:49:16.273Z,98215.88
2019-05-02T09:51:45.596Z,98212.46
2019-05-02T09:54:12.087Z,98208.36
2019-05-02T09:56:39.043Z,98209.28
2019-05-02T09:59:23.262Z,98200.92
2019-05-02T10:01:36.926Z,98197.64
2019-05-02T10:04:04.285Z,98193.70
2019-05-02T10:06:33.703Z,98184.55
2019-05-02T10:09:02.607Z,98180.41
2019-05-02T10:11:29.708Z,98176.53
2019-05-02T10:13:56.628Z,98175.64
2019-05-02T10:16:27.343Z,98167.73
2019-05-02T10:18:53.373Z,98174.31
2019-05-02T10:21:22.656Z,98169.77
2019-05-02T10:23:51.693Z,98161.05
2019-05-02T10:26:20.269Z,98166.69
2019-05-02T10:28:51.197Z,98165.02
2019-05-02T10:31:19.366Z,98156.67
2019-05-02T10:33:46.607Z,98153.81
2019-05-02T10:36:19.688Z,98152.23
2019-05-02T10:38:42.791Z,98152.49
2019-05-02T10:41:11.877Z,98150.98
2019-05-02T10:43:38.802Z,98145.73
2019-05-02T10:46:07.478Z,98150.88
2019-05-02T10:48:36.308Z,98148.75
2019-05-02T10:51:25.608Z,98146.74
2019-05-02T10:53:52.647Z,98145.17
2019-05-02T10:56:19.787Z,98137.55
2019-05-02T10:58:46.619Z,98131.58
2019-05-02T11:01:16.110Z,98130.52
2019-05-02T11:03:54.074Z,98126.11
2019-05-02T11:06:22.251Z,98121.52
2019-05-02T11:08:52.379Z,98120.15
2019-05-02T11:11:21.740Z,98116.81
2019-05-02T11:14:01.991Z,98125.46
2019-05-02T11:16:34.149Z,98114.62
2019-05-02T11:19:09.968Z,98113.44
2019-05-02T11:21:37.154Z,98108.72
2019-05-02T11:24:04.202Z,98115.19
2019-05-02T11:26:32.418Z,98094.75
2019-05-02T11:28:59.870Z,98106.13
2019-05-02T11:31:26.822Z,98105.69
2019-05-02T11:33:54.034Z,98100.38
2019-05-02T11:36:22.323Z,98103.59
2019-05-02T11:39:00.283Z,98093.13
2019-05-02T11:41:19.780Z,98099.03
2019-05-02T11:43:46.568Z,98106.73
2019-05-02T11:46:13.714Z,98107.12
2019-05-02T11:48:54.697Z,98100.42
2019-05-02T11:51:14.842Z,98096.25
2019-05-02T11:53:38.311Z,98098.86
2019-05-02T11:56:07.451Z,98097.46
2019-05-02T11:58:34.382Z,98103.37
2019-05-02T12:01:05.055Z,98106.52
2019-05-02T12:03:35.577Z,98097.92
2019-05-02T12:05:59.234Z,98095.25
2019-05-02T12:08:26.147Z,98096.54
2019-05-02T12:10:53.027Z,98091.34
2019-05-02T12:13:20.312Z,98086.24
2019-05-02T12:15:47.387Z,98088.79
2019-05-02T12:18:14.435Z,98086.55
2019-05-02T12:20:42.510Z,98089.77
2019-05-02T12:23:09.842Z,98082.47
2019-05-02T12:25:36.747Z,98086.56
2019-05-02T12:28:05.309Z,98085.33
2019-05-02T12:30:34.130Z,98079.88
2019-05-02T12:33:02.530Z,98079.80
2019-05-02T12:35:32.106Z,98079.71
2019-05-02T12:37:59.466Z,98075.19
2019-05-02T12:40:26.717Z,98078.31
2019-05-02T12:42:53.477Z,98075.97
2019-05-02T12:45:21.923Z,98065.05
2019-05-02T12:47:49.507Z,98071.91
2019-05-02T12:50:16.555Z,98062.94
2019-05-02T12:52:43.452Z,98056.34
2019-05-02T12:55:12.789Z,98051.75
2019-05-02T12:57:39.865Z,98064.97
2019-05-02T13:00:08.060Z,98056.42
2019-05-02T13:02:42.882Z,98042.41
2019-05-02T13:05:10.312Z,98049.13
2019-05-02T13:07:37.234Z,98042.22
2019-05-02T13:10:06.209Z,98031.22
2019-05-02T13:12:35.202Z,98042.78
2019-05-02T13:15:04.899Z,98035.27
2019-05-02T13:17:35.721Z,98022.67
2019-05-02T13:20:03.816Z,98021.44
2019-05-02T13:22:37.878Z,98020.33
2019-05-02T13:25:10.317Z,98018.20
2019-05-02T13:27:44.409Z,98014.01
2019-05-02T13:30:12.399Z,98014.97
2019-05-02T13:32:42.639Z,98007.50
2019-05-02T13:35:12.861Z,98006.70
2019-05-02T13:37:42.310Z,98009.27
2019-05-02T13:40:12.204Z,98003.98
2019-05-02T13:42:39.068Z,97997.69
2019-05-02T13:45:08.583Z,97986.42
2019-05-02T13:47:35.432Z,97997.23
2019-05-02T13:50:04.894Z,97991.06
2019-05-02T13:52:33.196Z,97988.77
2019-05-02T13:55:01.807Z,97994.70
2019-05-02T13:57:28.779Z,97981.31
2019-05-02T13:59:55.762Z,97979.93
2019-05-02T14:02:42.636Z,97979.66
2019-05-02T14:05:13.827Z,97979.86
2019-05-02T14:07:43.005Z,97979.52
2019-05-02T14:10:25.287Z,97967.50
2019-05-02T14:12:53.962Z,97961.19
2019-05-02T14:15:22.484Z,97954.84
2019-05-02T14:17:49.667Z,97950.95
2019-05-02T14:20:18.499Z,97957.63
2019-05-02T14:22:45.834Z,97948.75
2019-05-02T14:25:13.095Z,97950.70
2019-05-02T14:27:42.029Z,97948.88
2019-05-02T14:30:09.634Z,97950.84
2019-05-02T14:32:36.721Z,97946.69
2019-05-02T14:35:07.855Z,97944.42
2019-05-02T14:37:34.919Z,97949.23
2019-05-02T14:40:08.418Z,97947.22
2019-05-02T14:42:35.273Z,97943.45
2019-05-02T14:45:13.311Z,97939.20
2019-05-02T14:47:33.864Z,97944.55
2019-05-02T14:50:02.208Z,97963.75
2019-05-02T14:52:29.945Z,97982.52
2019-05-02T14:54:56.717Z,97969.60
2019-05-02T14:57:27.013Z,97978.12
2019-05-02T14:59:59.062Z,97978.23
2019-05-02T15:02:39.324Z,97968.34
2019-05-02T15:05:05.684Z,97969.20
2019-05-02T15:07:33.022Z,97978.81
2019-05-02T15:10:05.046Z,97965.81
2019-05-02T15:12:28.855Z,97965.42
2019-05-02T15:14:58.657Z,97977.61
2019-05-02T15:17:28.111Z,97965.06
2019-05-02T15:19:53.244Z,97967.64
2019-05-02T15:22:20.024Z,97968.45
2019-05-02T15:24:46.767Z,97982.73
2019-05-02T15:27:17.728Z,97978.19
2019-05-02T15:29:42.619Z,97976.77
2019-05-02T15:32:25.451Z,97979.19
2019-05-02T15:35:02.496Z,97971.60
2019-05-02T15:37:29.498Z,97983.00
2019-05-02T15:42:25.882Z,97983.09
2019-05-02T15:44:56.950Z,97994.06
2019-05-02T15:47:22.509Z,98007.23
2019-05-02T15:49:50.309Z,98005.47
2019-05-02T15:52:24.268Z,98013.80
2019-05-02T15:54:55.515Z,98001.34
2019-05-02T15:57:22.077Z,98014.41
2019-05-02T15:59:48.381Z,98013.38
2019-05-02T16:02:21.897Z,98018.95
2019-05-02T16:04:46.605Z,98006.33
2019-05-02T16:07:14.030Z,97998.39
2019-05-02T16:09:41.662Z,97992.14
2019-05-02T16:12:08.790Z,97999.08
2019-05-02T16:14:36.246Z,98025.02
2019-05-02T16:17:03.912Z,98021.73
2019-05-02T16:19:33.073Z,98015.74
2019-05-02T16:22:06.676Z,98015.86
2019-05-02T16:24:32.138Z,98018.70
2019-05-02T16:26:58.999Z,98008.23
2019-05-02T16:29:28.424Z,97997.14
2019-05-02T16:31:59.819Z,97996.56
2019-05-02T16:34:27.466Z,97993.06
2019-05-02T16:36:57.592Z,97990.33
2019-05-02T16:39:24.353Z,97995.55
2019-05-02T16:41:52.953Z,98021.30
2019-05-02T16:44:19.919Z,98017.23
2019-05-02T16:46:47.119Z,98017.36
2019-05-02T16:49:18.485Z,98025.19
2019-05-02T16:51:43.292Z,98021.00
2019-05-02T16:54:10.186Z,98021.22
2019-05-02T16:56:42.363Z,98019.85
2019-05-02T16:59:05.972Z,98018.48
2019-05-02T17:01:32.794Z,98024.81
2019-05-02T17:04:05.183Z,98023.38
2019-05-02T17:06:29.817Z,98027.47
2019-05-02T17:09:07.623Z,98012.59
2019-05-02T17:11:36.421Z,98015.78
2019-05-02T17:14:07.000Z,98021.47
2019-05-02T17:16:32.420Z,98023.45
2019-05-02T17:18:59.204Z,98014.16
2019-05-02T17:21:26.764Z,98014.48
2019-05-02T17:23:55.190Z,98017.13
2019-05-02T17:26:22.795Z,98011.09
2019-05-02T17:28:51.633Z,98013.95
2019-05-02T17:31:20.645Z,98018.04
2019-05-02T17:33:50.930Z,98021.91
2019-05-02T17:36:21.522Z,98015.98
2019-05-02T17:38:46.284Z,98022.67
2019-05-02T17:41:13.349Z,98016.91
2019-05-02T17:43:42.138Z,98022.46
2019-05-02T17:46:12.672Z,98029.73
2019-05-02T17:48:39.273Z,98033.39
2019-05-02T17:51:08.455Z,98029.95
2019-05-02T17:53:41.626Z,98030.19
2019-05-02T17:56:04.427Z,98027.36
2019-05-02T17:58:31.881Z,98021.78
2019-05-02T18:01:02.580Z,98022.13
2019-05-02T18:03:31.102Z,98025.90
2019-05-02T18:05:58.674Z,98025.44
2019-05-02T18:08:27.134Z,98027.59
2019-05-02T18:10:58.094Z,98024.63
2019-05-02T18:13:23.807Z,98021.09
2019-05-02T18:15:53.570Z,98021.09
2019-05-02T18:18:22.141Z,98028.95
2019-05-02T18:20:49.128Z,98027.22
2019-05-02T18:23:18.643Z,98025.53
2019-05-02T18:25:45.263Z,98039.48
2019-05-02T18:28:14.041Z,98039.94
2019-05-02T18:30:41.741Z,98040.39
2019-05-02T18:33:09.035Z,98030.63
2019-05-02T18:35:37.496Z,98025.64
2019-05-02T18:38:05.373Z,98028.25
2019-05-02T18:40:32.436Z,98028.48
2019-05-02T18:43:02.147Z,98028.71
2019-05-02T18:45:29.159Z,98039.70
2019-05-02T18:48:02.347Z,98036.88
2019-05-02T18:50:36.979Z,98042.87
2019-05-02T18:53:06.450Z,98043.67
2019-05-02T18:55:33.954Z,98053.88
2019-05-02T18:58:05.140Z,98055.03
2019-05-02T19:00:36.109Z,98066.00
2019-05-02T19:02:59.728Z,98066.35
2019-05-02T19:05:26.700Z,98070.84
2019-05-02T19:07:56.317Z,98074.58
2019-05-02T19:10:23.180Z,98080.70
2019-05-02T19:12:50.269Z,98092.18
2019-05-02T19:15:18.360Z,98083.75
2019-05-02T19:17:45.258Z,98079.32
2019-05-02T19:20:29.297Z,98089.09
2019-05-02T19:22:57.023Z,98090.22
2019-05-02T19:25:24.483Z,98089.75
2019-05-02T19:27:52.135Z,98095.50
2019-05-02T19:30:26.407Z,98096.52
2019-05-02T19:32:52.068Z,98090.92
2019-05-02T19:35:19.272Z,98089.30
2019-05-02T19:37:47.887Z,98087.51
2019-05-02T19:40:26.896Z,98097.47
2019-05-02T19:42:49.410Z,98105.06
2019-05-02T19:45:16.982Z,98105.17
2019-05-02T19:47:44.150Z,98103.27
2019-05-02T19:50:36.710Z,98102.89
2019-05-02T19:53:04.165Z,98106.42
2019-05-02T19:55:29.772Z,98100.83
2019-05-02T19:58:01.364Z,98105.11
2019-05-02T20:00:27.091Z,98102.39
2019-05-02T20:02:54.282Z,98102.66
2019-05-02T20:05:25.434Z,98099.61
2019-05-02T20:07:52.017Z,98093.05
2019-05-02T20:10:19.398Z,98096.31
2019-05-02T20:12:48.741Z,98100.40
2019-05-02T20:15:25.407Z,98095.53
2019-05-02T20:17:46.520Z,98099.81
2019-05-02T20:20:42.292Z,98104.88
2019-05-02T20:23:17.848Z,98097.30
2019-05-02T20:25:39.173Z,98108.30
2019-05-02T20:28:06.375Z,98106.20
2019-05-02T20:30:33.522Z,98107.41
2019-05-02T20:33:02.113Z,98108.34
2019-05-02T20:35:29.341Z,98108.14
2019-05-02T20:37:56.341Z,98105.89
2019-05-02T20:40:28.160Z,98101.14
2019-05-02T20:42:55.180Z,98102.73
2019-05-02T20:45:22.764Z,98106.82
2019-05-02T20:47:49.768Z,98106.24
2019-05-02T20:50:17.068Z,98115.45
2019-05-02T20:52:43.954Z,98109.20
2019-05-02T20:55:12.262Z,98112.50
2019-05-02T20:57:39.494Z,98110.09
2019-05-02T21:00:23.391Z,98109.54
2019-05-02T21:02:49.597Z,98102.23
2019-05-02T21:05:21.879Z,98105.51
2019-05-02T21:07:52.377Z,98107.77
2019-05-02T21:10:21.836Z,98110.91
2019-05-02T21:12:48.837Z,98110.22
2019-05-02T21:15:18.211Z,98110.13
2019-05-02T21:17:45.389Z,98101.94
2019-05-02T21:20:12.585Z,98109.75
2019-05-02T21:22:39.615Z,98106.02
2019-05-02T21:25:07.021Z,98106.80
2019-05-02T21:27:33.964Z,98103.37
2019-05-02T21:30:01.065Z,98103.72
2019-05-02T21:32:27.853Z,98103.37
2019-05-02T21:34:54.810Z,98107.69
2019-05-02T21:37:22.675Z,98113.05
2019-05-02T21:39:49.697Z,98114.45
2019-05-02T21:42:16.580Z,98112.20
2019-05-02T21:44:43.936Z,98115.50
2019-05-02T21:47:10.698Z,98105.67
2019-05-02T21:49:43.094Z,98108.50
2019-05-02T21:52:22.711Z,98113.32
2019-05-02T21:54:52.256Z,98112.63
2019-05-02T21:57:20.291Z,98112.16
2019-05-02T21:59:47.300Z,98107.84
2019-05-02T22:02:15.703Z,98116.23
2019-05-02T22:04:42.922Z,98120.63
2019-05-02T22:07:12.052Z,98117.67
2019-05-02T22:09:38.558Z,98117.67
2019-05-02T22:12:06.082Z,98118.09
2019-05-02T22:14:33.092Z,98119.92
2019-05-02T22:17:02.151Z,98122.88
2019-05-02T22:19:29.002Z,98122.45
2019-05-02T22:21:55.811Z,98120.08
2019-05-02T22:24:22.731Z,98125.75
2019-05-02T22:26:49.834Z,98128.86
2019-05-02T22:29:16.682Z,98117.63
2019-05-02T22:31:44.038Z,98118.02
2019-05-02T22:34:12.819Z,98121.67
2019-05-02T22:36:40.894Z,98118.25
2019-05-02T22:39:22.728Z,98121.62
2019-05-02T22:41:49.658Z,98112.33
2019-05-02T22:44:16.478Z,98116.18
2019-05-02T22:46:44.485Z,98110.89
2019-05-02T22:49:14.650Z,98113.14
2019-05-02T22:51:42.874Z,98113.38
2019-05-02T22:54:23.294Z,98116.76
2019-05-02T22:56:38.830Z,98113.98
2019-05-02T22:59:06.001Z,98117.36
2019-05-02T23:01:33.045Z,98116.89
2019-05-02T23:04:01.857Z,98120.50
2019-05-02T23:06:29.282Z,98119.80
2019-05-02T23:08:56.171Z,98118.44
2019-05-02T23:11:24.523Z,98120.92
2019-05-02T23:13:51.796Z,98120.44
2019-05-02T23:16:18.749Z,98116.99
2019-05-02T23:18:45.551Z,98112.67
2019-05-02T23:21:12.900Z,98113.09
2019-05-02T23:23:41.719Z,98124.26
2019-05-02T23:26:12.993Z,98118.71
2019-05-02T23:28:42.365Z,98112.80
2019-05-02T23:31:11.446Z,98114.27
2019-05-02T23:33:56.868Z,98114.81
2019-05-02T23:36:26.083Z,98114.45
2019-05-02T23:38:52.970Z,98116.13
2019-05-02T23:41:22.005Z,98119.08
2019-05-02T23:43:49.007Z,98116.37
2019-05-02T23:46:16.340Z,98116.89
2019-05-02T23:48:43.512Z,98115.14
2019-05-02T23:51:12.137Z,98110.75
2019-05-02T23:53:39.294Z,98111.41
2019-05-02T23:56:06.583Z,98103.95
2019-05-02T23:58:33.344Z,98109.63
